Maricopa, Arizona
Current Conditions -  °F | °C
As of 6:55 PM on Wednesday 26 Nov 2014 (Local Time) from KCGZ Reporting Station
Clear Clear  
Wind Chill: 15°   Ceiling: Unl
Heat Index: 15°   Visibility: 10mi
Dew Point: -10°   Wind: 0mph
Humidity: 17%   Direction: NA
Pressure: 30.19"   Gusts: NA
Location:  33.06°N, 112.05°W
Report Text: KCGZ 270155Z AUTO 00000KT 10SM CLR 15/M10 A3019 RMK AO1
Loading
Personal Weather Stations






























Interactive Weather Map New forecast layout! Learn more

10-Day Weather Forecast

Advertisements
Track Severe Weather on mobile